84OL weather

Cotton Field
Broken Arrow, Oklahoma, United States

Public forecast

Using degrees Fahrenheit for public forecast. Weather courtesy of forecast.io.

METAR (pilot weather report)

Closest report is Tulsa International Airport, 8.0 nm (14.7 km) NW. Retrieved 2019/04/22 02:53 UTC (44 minutes ago):

KTUL 220253Z 17016KT 10SM CLR 23/11 A2986 RMK AO2 SLP104 T02330111 53020 $

TAF (pilot weather forecast)

Forecast is more than 12 hours old.

Closest forecast is Tulsa International Airport, 8.0 nm (14.7 km) NW. Retrieved 2019/04/21 00:22 UTC (1 day ago):

TAF KTUL 212320Z 2200/2224 17024G32KT P6SM SCT150 FM220100 18015KT P6SM SCT150 FM221500 19012G22KT P6SM BKN025